Time;durP1;ratioP1;P1;durP2;ratioP2;P2;SDS_P1;SDS_P2;PMS_P1;PMS_P2;Temp;Humidity;BMP_temperature;BMP_pressure;BME280_temperature;BME280_humidity;BME280_pressure;Samples;Min_cycle;Max_cycle;Signal;HPM_P1;HPM_P2
2021/09/02 00:00:51;;;;;;;;;;;20.50;99.90;;;;;;5009703;28;20005;-72
2021/09/02 00:03:17;;;;;;;;;;;20.40;99.90;;;;;;5009603;28;20311;-70
2021/09/02 00:05:43;;;;;;;;;;;20.40;99.90;;;;;;4997349;28;19957;-70
2021/09/02 00:08:08;;;;;;;;;;;20.40;99.90;;;;;;5007220;28;19916;-69
2021/09/02 00:10:35;;;;;;;;;;;20.40;99.90;;;;;;5009720;28;19935;-70
2021/09/02 00:13:00;;;;;;;;;;;20.40;99.90;;;;;;5008439;28;20004;-70
2021/09/02 00:15:26;;;;;;;;;;;20.40;99.90;;;;;;5009909;28;19944;-71
2021/09/02 00:17:51;;;;;;;;;;;20.30;99.90;;;;;;5010208;28;20281;-70
2021/09/02 00:20:17;;;;;;;;;;;20.30;99.90;;;;;;5006942;28;19982;-70
2021/09/02 00:22:43;;;;;;;;;;;20.30;99.90;;;;;;5008017;28;19909;-70
2021/09/02 00:25:09;;;;;;;;;;;20.30;99.90;;;;;;5010261;28;19913;-69
2021/09/02 00:27:35;;;;;;;;;;;20.30;99.90;;;;;;5007978;28;19992;-70
2021/09/02 00:30:01;;;;;;;;;;;20.30;99.90;;;;;;5010180;28;19952;-70
2021/09/02 00:32:26;;;;;;;;;;;20.30;99.90;;;;;;5009724;28;20350;-71
2021/09/02 00:34:52;;;;;;;;;;;20.30;99.90;;;;;;5010850;28;19996;-71
2021/09/02 00:37:17;;;;;;;;;;;20.30;99.90;;;;;;5010032;28;19909;-69
2021/09/02 00:39:43;;;;;;;;;;;20.40;99.90;;;;;;5009772;28;19909;-70
2021/09/02 00:42:09;;;;;;;;;;;20.40;99.90;;;;;;5007755;28;19909;-71
2021/09/02 00:44:37;;;;;;;;;;;20.40;99.90;;;;;;5006453;28;19917;-69
2021/09/02 00:47:03;;;;;;;;;;;20.50;99.90;;;;;;5009802;28;20372;-68
2021/09/02 00:49:29;;;;;;;;;;;20.60;99.90;;;;;;5009655;28;20439;-70
2021/09/02 00:51:57;;;;;;;;;;;20.50;99.90;;;;;;5009727;28;20016;-71
2021/09/02 00:54:22;;;;;;;;;;;20.50;99.90;;;;;;5010022;28;19944;-69
2021/09/02 00:56:48;;;;;;;;;;;20.50;99.90;;;;;;5010482;28;19909;-70
2021/09/02 00:59:13;;;;;;;;;;;20.50;99.90;;;;;;5009556;28;19913;-70
2021/09/02 01:01:39;;;;;;;;;;;20.40;99.90;;;;;;5009160;28;19924;-71
2021/09/02 01:04:04;;;;;;;;;;;20.40;99.90;;;;;;5010874;28;19926;-69
2021/09/02 01:06:30;;;;;;;;;;;20.40;99.90;;;;;;5009179;28;19914;-70
2021/09/02 01:08:56;;;;;;;;;;;20.40;99.90;;;;;;5009576;28;19909;-72
2021/09/02 01:11:23;;;;;;;;;;;20.40;99.90;;;;;;5009193;28;19909;-70
2021/09/02 01:13:48;;;;;;;;;;;20.40;99.90;;;;;;5009620;28;19912;-70
2021/09/02 01:16:14;;;;;;;;;;;20.40;99.90;;;;;;5003388;28;19909;-69
2021/09/02 01:18:39;;;;;;;;;;;20.40;99.90;;;;;;5009423;28;20303;-70
2021/09/02 01:21:05;;;;;;;;;;;20.40;99.90;;;;;;5008520;28;19925;-69
2021/09/02 01:23:38;;;;;;;;;;;20.40;99.90;;;;;;5003140;28;19913;-70
2021/09/02 01:26:24;;;;;;;;;;;20.40;99.90;;;;;;5007764;28;19914;-69
2021/09/02 01:28:50;;;;;;;;;;;20.50;99.90;;;;;;5008319;28;19905;-69
2021/09/02 01:31:19;;;;;;;;;;;20.40;99.90;;;;;;5009773;28;19931;-71
2021/09/02 01:33:45;;;;;;;;;;;20.40;99.90;;;;;;5008381;28;19958;-69
2021/09/02 01:36:11;;;;;;;;;;;20.40;99.90;;;;;;5010627;28;20319;-69
2021/09/02 01:38:37;;;;;;;;;;;20.40;99.90;;;;;;5008741;28;20020;-69
2021/09/02 01:41:03;;;;;;;;;;;20.40;99.90;;;;;;5009939;28;20433;-70
2021/09/02 01:43:28;;;;;;;;;;;20.50;99.90;;;;;;5006625;28;20000;-71
2021/09/02 01:48:38;;;;;;;;;;;20.60;99.90;;;;;;5610909;23;19922;-79
2021/09/02 01:51:04;;;;;;;;;;;20.60;99.90;;;;;;5032201;28;19920;-80
2021/09/02 01:53:29;;;;;;;;;;;20.60;99.90;;;;;;5017975;28;19945;-80
2021/09/02 01:55:56;;;;;;;;;;;20.60;99.90;;;;;;5008565;28;19910;-80
2021/09/02 01:58:21;;;;;;;;;;;20.60;99.90;;;;;;5013196;28;19909;-80
2021/09/02 02:00:47;;;;;;;;;;;20.50;99.90;;;;;;5006867;28;20366;-80
2021/09/02 02:03:13;;;;;;;;;;;20.50;99.90;;;;;;5013699;28;20374;-80
2021/09/02 02:05:38;;;;;;;;;;;20.50;99.90;;;;;;5006018;28;19918;-80
2021/09/02 02:08:10;;;;;;;;;;;20.60;99.90;;;;;;5018975;28;19905;-80
2021/09/02 02:10:36;;;;;;;;;;;20.50;99.90;;;;;;5009159;28;19920;-80
2021/09/02 02:13:02;;;;;;;;;;;20.50;99.90;;;;;;5008742;28;19910;-80
2021/09/02 02:15:28;;;;;;;;;;;20.50;99.90;;;;;;5019394;28;20386;-79
2021/09/02 02:17:55;;;;;;;;;;;20.50;99.90;;;;;;5012642;28;19956;-80
2021/09/02 02:20:21;;;;;;;;;;;20.50;99.90;;;;;;5008575;28;19932;-80
2021/09/02 02:22:47;;;;;;;;;;;20.50;99.90;;;;;;5011498;28;19910;-80
2021/09/02 02:25:14;;;;;;;;;;;20.50;99.90;;;;;;5003218;28;19917;-79
2021/09/02 02:27:40;;;;;;;;;;;20.50;99.90;;;;;;5013175;28;19920;-80
2021/09/02 02:30:09;;;;;;;;;;;20.60;99.90;;;;;;5009416;28;20187;-80
2021/09/02 02:32:35;;;;;;;;;;;20.60;99.90;;;;;;5024077;28;19916;-80
2021/09/02 02:35:01;;;;;;;;;;;20.50;99.90;;;;;;5014928;28;20314;-80
2021/09/02 02:37:27;;;;;;;;;;;20.60;99.90;;;;;;5027928;28;20341;-79
2021/09/02 02:39:52;;;;;;;;;;;20.70;99.90;;;;;;5018524;28;19953;-80
2021/09/02 02:42:19;;;;;;;;;;;20.70;99.90;;;;;;5003725;28;19909;-80
2021/09/02 02:44:45;;;;;;;;;;;20.80;99.90;;;;;;5013679;28;19909;-80
2021/09/02 02:47:10;;;;;;;;;;;20.80;99.90;;;;;;5026715;28;20034;-79
2021/09/02 02:49:37;;;;;;;;;;;20.80;99.90;;;;;;5015301;28;20484;-80
2021/09/02 02:52:06;;;;;;;;;;;20.80;99.90;;;;;;5011126;28;19956;-80
2021/09/02 02:54:32;;;;;;;;;;;20.70;99.90;;;;;;5010945;28;20184;-80
2021/09/02 02:56:57;;;;;;;;;;;20.70;99.90;;;;;;5011717;28;19909;-80
2021/09/02 02:59:24;;;;;;;;;;;20.50;99.90;;;;;;5020672;28;19909;-80
2021/09/02 03:01:50;;;;;;;;;;;20.40;99.90;;;;;;5011783;28;19909;-80
2021/09/02 03:04:16;;;;;;;;;;;20.40;99.90;;;;;;5024857;28;19917;-80
2021/09/02 03:06:41;;;;;;;;;;;20.30;99.90;;;;;;5013235;28;19932;-80
2021/09/02 03:09:13;;;;;;;;;;;20.20;99.90;;;;;;5020534;28;19917;-80
2021/09/02 03:11:39;;;;;;;;;;;20.20;99.90;;;;;;5007419;28;19913;-80
2021/09/02 03:14:05;;;;;;;;;;;20.10;99.90;;;;;;5013867;28;19910;-80
2021/09/02 03:16:33;;;;;;;;;;;20.10;99.90;;;;;;5018537;28;19981;-80
2021/09/02 03:18:59;;;;;;;;;;;20.10;99.90;;;;;;5015287;28;19948;-80
2021/09/02 03:21:25;;;;;;;;;;;20.00;99.90;;;;;;5010091;28;19921;-80
2021/09/02 03:23:51;;;;;;;;;;;20.10;99.90;;;;;;5015881;28;19979;-80
2021/09/02 03:26:16;;;;;;;;;;;20.00;99.90;;;;;;5011870;28;19936;-80
2021/09/02 03:28:42;;;;;;;;;;;19.90;99.90;;;;;;5023961;28;19905;-79
2021/09/02 03:31:08;;;;;;;;;;;19.90;99.90;;;;;;5004358;28;19933;-80
2021/09/02 03:33:33;;;;;;;;;;;20.00;99.90;;;;;;5015263;28;20199;-80
2021/09/02 03:35:59;;;;;;;;;;;19.90;99.90;;;;;;5010829;28;19913;-79
2021/09/02 03:38:25;;;;;;;;;;;19.90;99.90;;;;;;5010359;28;20403;-80
2021/09/02 03:40:51;;;;;;;;;;;19.90;99.90;;;;;;5001056;28;20347;-80
2021/09/02 03:43:20;;;;;;;;;;;19.90;99.90;;;;;;5004436;28;19916;-80
2021/09/02 03:45:46;;;;;;;;;;;20.00;99.90;;;;;;5007837;28;19964;-80
2021/09/02 03:48:12;;;;;;;;;;;19.90;99.90;;;;;;5020738;28;19920;-80
2021/09/02 03:50:37;;;;;;;;;;;20.00;99.90;;;;;;5015190;28;20072;-80
2021/09/02 03:53:03;;;;;;;;;;;19.90;99.90;;;;;;5019092;28;19913;-80
2021/09/02 03:55:29;;;;;;;;;;;20.00;99.90;;;;;;5014616;28;19913;-81
2021/09/02 03:58:00;;;;;;;;;;;19.90;99.90;;;;;;5009719;28;19909;-80
2021/09/02 04:00:33;;;;;;;;;;;20.00;99.90;;;;;;5014302;28;19963;-81
2021/09/02 04:02:59;;;;;;;;;;;20.00;99.90;;;;;;5024841;28;19909;-80
2021/09/02 04:05:25;;;;;;;;;;;19.90;99.90;;;;;;5014626;28;19980;-80
2021/09/02 04:07:51;;;;;;;;;;;19.90;99.90;;;;;;5016278;28;19910;-80
2021/09/02 04:10:16;;;;;;;;;;;19.90;99.90;;;;;;5015112;28;19944;-80
2021/09/02 04:12:42;;;;;;;;;;;20.00;99.90;;;;;;5013096;28;19948;-80
2021/09/02 04:15:08;;;;;;;;;;;20.00;99.90;;;;;;5016343;28;19909;-80
2021/09/02 04:17:36;;;;;;;;;;;19.90;99.90;;;;;;5012202;28;19910;-80
2021/09/02 04:20:02;;;;;;;;;;;19.90;99.90;;;;;;5011106;28;19917;-80
2021/09/02 04:22:28;;;;;;;;;;;19.80;99.90;;;;;;5009535;28;20200;-80
2021/09/02 04:24:54;;;;;;;;;;;19.70;99.90;;;;;;5023560;28;19989;-80
2021/09/02 04:27:23;;;;;;;;;;;19.70;99.90;;;;;;5021506;28;19984;-80
2021/09/02 04:29:48;;;;;;;;;;;19.70;99.90;;;;;;5018939;28;19921;-80
2021/09/02 04:35:03;;;;;;;;;;;19.70;99.90;;;;;;5014030;28;20363;-79
2021/09/02 04:37:57;;;;;;;;;;;19.70;99.90;;;;;;5006612;28;20165;-79
2021/09/02 04:40:29;;;;;;;;;;;19.70;99.90;;;;;;5002120;28;19910;-80
2021/09/02 04:42:58;;;;;;;;;;;19.70;99.90;;;;;;5010244;28;19909;-79
2021/09/02 04:45:24;;;;;;;;;;;19.80;99.90;;;;;;5010324;28;19943;-79
2021/09/02 04:47:51;;;;;;;;;;;19.80;99.90;;;;;;5008776;28;19910;-79
2021/09/02 04:53:40;;;;;;;;;;;19.70;99.90;;;;;;5022641;28;19980;-80
2021/09/02 04:56:40;;;;;;;;;;;19.60;99.90;;;;;;5022899;28;19913;-79
2021/09/02 04:59:22;;;;;;;;;;;19.50;99.90;;;;;;5007944;28;19917;-80
2021/09/02 05:01:47;;;;;;;;;;;19.50;99.90;;;;;;5015341;28;19936;-79
2021/09/02 05:04:13;;;;;;;;;;;19.60;99.90;;;;;;5011343;28;19916;-79
2021/09/02 05:06:39;;;;;;;;;;;19.70;99.90;;;;;;5017575;28;20364;-80
2021/09/02 05:09:07;;;;;;;;;;;19.70;99.90;;;;;;5005860;28;19909;-80
2021/09/02 05:11:35;;;;;;;;;;;19.80;99.90;;;;;;5011055;28;19913;-80
2021/09/02 05:14:01;;;;;;;;;;;19.90;99.90;;;;;;5015792;28;19916;-80
2021/09/02 05:16:27;;;;;;;;;;;20.00;99.90;;;;;;5004065;28;19909;-80
2021/09/02 05:18:55;;;;;;;;;;;20.00;99.90;;;;;;5015648;28;20190;-80
2021/09/02 05:21:30;;;;;;;;;;;20.00;99.90;;;;;;5014510;28;19909;-80
2021/09/02 05:23:56;;;;;;;;;;;20.10;99.90;;;;;;5008529;28;19913;-79
2021/09/02 05:26:50;;;;;;;;;;;20.10;99.90;;;;;;5013126;28;19914;-80
2021/09/02 05:29:27;;;;;;;;;;;20.00;99.90;;;;;;4997692;28;19936;-80
2021/09/02 05:31:56;;;;;;;;;;;20.00;99.90;;;;;;5015740;28;19909;-80
2021/09/02 05:34:22;;;;;;;;;;;20.00;99.90;;;;;;5006400;28;19910;-80
2021/09/02 05:36:47;;;;;;;;;;;20.10;99.90;;;;;;5018444;28;20155;-80
2021/09/02 05:39:23;;;;;;;;;;;20.20;99.90;;;;;;5015891;28;19968;-80
2021/09/02 05:41:49;;;;;;;;;;;20.30;99.90;;;;;;5023572;28;19906;-80
2021/09/02 05:44:15;;;;;;;;;;;20.40;99.90;;;;;;5008498;28;19932;-80
2021/09/02 05:46:41;;;;;;;;;;;20.40;99.90;;;;;;5026245;28;20432;-80
2021/09/02 05:49:07;;;;;;;;;;;20.40;99.90;;;;;;5013226;28;19913;-80
2021/09/02 05:51:39;;;;;;;;;;;20.40;99.90;;;;;;5010511;28;19972;-80
2021/09/02 05:54:10;;;;;;;;;;;20.50;99.90;;;;;;5017540;28;19909;-81
2021/09/02 05:56:44;;;;;;;;;;;20.50;99.90;;;;;;5022669;28;19917;-81
2021/09/02 05:59:09;;;;;;;;;;;20.60;99.90;;;;;;5014265;28;20149;-81
2021/09/02 06:01:35;;;;;;;;;;;20.70;99.90;;;;;;5014431;28;19913;-81
2021/09/02 06:04:01;;;;;;;;;;;20.70;99.90;;;;;;5021643;28;19910;-82
2021/09/02 06:06:27;;;;;;;;;;;20.70;99.90;;;;;;5011575;28;19914;-80
2021/09/02 06:09:01;;;;;;;;;;;20.80;99.90;;;;;;5003123;28;19917;-80
2021/09/02 06:11:27;;;;;;;;;;;20.90;99.90;;;;;;5022651;28;19906;-81
2021/09/02 06:13:53;;;;;;;;;;;21.00;99.90;;;;;;5011915;28;20009;-82
2021/09/02 06:16:19;;;;;;;;;;;21.10;99.90;;;;;;5007042;28;19916;-82
2021/09/02 06:18:44;;;;;;;;;;;21.20;99.90;;;;;;5008696;28;20356;-82
2021/09/02 06:21:10;;;;;;;;;;;21.20;99.90;;;;;;5018463;28;19949;-79
2021/09/02 06:23:36;;;;;;;;;;;21.40;99.90;;;;;;5008922;28;19918;-79
2021/09/02 06:26:02;;;;;;;;;;;21.40;99.90;;;;;;5004393;28;19920;-80
2021/09/02 06:28:28;;;;;;;;;;;21.40;99.90;;;;;;5009045;28;19921;-80
2021/09/02 06:30:53;;;;;;;;;;;21.40;99.90;;;;;;5009324;28;19957;-81
2021/09/02 06:33:19;;;;;;;;;;;21.50;99.90;;;;;;4993018;28;19914;-82
2021/09/02 06:35:50;;;;;;;;;;;21.70;99.90;;;;;;5011938;28;20002;-82
2021/09/02 06:38:16;;;;;;;;;;;21.70;99.90;;;;;;5006144;28;19913;-82
2021/09/02 06:40:42;;;;;;;;;;;21.80;99.90;;;;;;5022845;28;19905;-82
2021/09/02 06:43:07;;;;;;;;;;;21.80;99.90;;;;;;5023672;28;19984;-82
2021/09/02 06:45:33;;;;;;;;;;;21.80;99.90;;;;;;5018024;28;19910;-84
2021/09/02 06:47:59;;;;;;;;;;;21.80;99.90;;;;;;5017449;28;19982;-81
2021/09/02 06:50:25;;;;;;;;;;;21.90;99.90;;;;;;5019460;28;20271;-82
2021/09/02 06:52:50;;;;;;;;;;;22.00;99.90;;;;;;5024148;28;19898;-82
2021/09/02 06:55:16;;;;;;;;;;;22.00;99.90;;;;;;5024823;28;19913;-81
2021/09/02 06:57:45;;;;;;;;;;;22.10;99.90;;;;;;5022261;28;20363;-81
2021/09/02 07:00:11;;;;;;;;;;;22.10;99.90;;;;;;5024843;28;19909;-83
2021/09/02 07:02:37;;;;;;;;;;;22.10;99.90;;;;;;5015765;28;19910;-83
2021/09/02 07:05:04;;;;;;;;;;;22.10;99.90;;;;;;5028945;28;20004;-82
2021/09/02 07:07:29;;;;;;;;;;;22.30;99.90;;;;;;5025349;28;19921;-82
2021/09/02 07:09:55;;;;;;;;;;;22.30;99.90;;;;;;5017581;28;20485;-83
2021/09/02 07:12:21;;;;;;;;;;;22.30;99.90;;;;;;5022023;28;20004;-81
2021/09/02 07:14:47;;;;;;;;;;;22.30;99.90;;;;;;5018874;28;19943;-80
2021/09/02 07:17:12;;;;;;;;;;;22.50;99.90;;;;;;5011362;28;19916;-81
2021/09/02 07:19:38;;;;;;;;;;;22.50;99.90;;;;;;5017916;28;19921;-82
2021/09/02 07:22:04;;;;;;;;;;;22.50;99.90;;;;;;5024067;28;19912;-82
2021/09/02 07:24:30;;;;;;;;;;;22.50;99.90;;;;;;5017737;28;19940;-81
2021/09/02 07:26:55;;;;;;;;;;;22.50;99.90;;;;;;5012995;28;19925;-87
2021/09/02 07:29:21;;;;;;;;;;;22.60;99.90;;;;;;5011884;28;19916;-82
2021/09/02 07:31:46;;;;;;;;;;;22.60;99.90;;;;;;5019759;28;19981;-83
2021/09/02 07:34:12;;;;;;;;;;;22.60;99.90;;;;;;5022797;28;19924;-81
2021/09/02 07:36:38;;;;;;;;;;;22.70;99.90;;;;;;5029199;28;19915;-81
2021/09/02 07:39:04;;;;;;;;;;;22.70;99.90;;;;;;5025298;28;19964;-81
2021/09/02 07:41:30;;;;;;;;;;;22.60;99.90;;;;;;5016894;28;19945;-81
2021/09/02 07:43:56;;;;;;;;;;;22.60;99.90;;;;;;5023031;28;19920;-83
2021/09/02 07:46:21;;;;;;;;;;;22.60;99.90;;;;;;5022795;28;19910;-83
2021/09/02 07:48:47;;;;;;;;;;;22.60;99.90;;;;;;5020883;28;19920;-82
2021/09/02 07:51:14;;;;;;;;;;;22.70;99.90;;;;;;5021213;28;19922;-83
2021/09/02 07:53:40;;;;;;;;;;;22.70;99.90;;;;;;5023989;28;19917;-82
2021/09/02 07:56:05;;;;;;;;;;;22.90;99.90;;;;;;5022258;28;19920;-81
2021/09/02 07:58:31;;;;;;;;;;;22.90;99.90;;;;;;5014359;28;19981;-80
2021/09/02 08:00:59;;;;;;;;;;;22.90;99.90;;;;;;5018070;28;20372;-81
2021/09/02 08:03:24;;;;;;;;;;;22.90;99.90;;;;;;5015932;28;19913;-82
2021/09/02 08:05:50;;;;;;;;;;;23.00;99.90;;;;;;5013011;28;19914;-82
2021/09/02 08:08:17;;;;;;;;;;;23.10;99.90;;;;;;5025752;28;19990;-82
2021/09/02 08:10:43;;;;;;;;;;;23.20;99.90;;;;;;5027158;28;19910;-83
2021/09/02 08:13:08;;;;;;;;;;;23.20;99.90;;;;;;5010920;28;19953;-82
2021/09/02 08:15:36;;;;;;;;;;;23.20;99.90;;;;;;5017284;28;19934;-81
2021/09/02 08:18:02;;;;;;;;;;;23.10;99.90;;;;;;5013250;28;19918;-82
2021/09/02 08:20:28;;;;;;;;;;;23.20;99.90;;;;;;5015838;28;19909;-81
2021/09/02 08:22:53;;;;;;;;;;;23.20;99.90;;;;;;5018927;28;19976;-82
2021/09/02 08:25:19;;;;;;;;;;;23.40;99.90;;;;;;5022407;28;19917;-83
2021/09/02 08:27:45;;;;;;;;;;;23.50;99.90;;;;;;5015848;28;19920;-81
2021/09/02 08:30:12;;;;;;;;;;;23.50;99.90;;;;;;5011603;28;19910;-82
2021/09/02 08:32:38;;;;;;;;;;;23.50;99.90;;;;;;5019666;28;19973;-82
2021/09/02 08:35:04;;;;;;;;;;;23.50;99.90;;;;;;5022373;28;19910;-82
2021/09/02 08:37:32;;;;;;;;;;;23.70;99.90;;;;;;5014823;28;20178;-80
2021/09/02 08:39:57;;;;;;;;;;;23.80;99.90;;;;;;5021342;28;20156;-82
2021/09/02 08:42:23;;;;;;;;;;;23.80;99.90;;;;;;5015431;28;19905;-81
2021/09/02 08:44:51;;;;;;;;;;;23.70;99.90;;;;;;5009231;28;19968;-81
2021/09/02 08:47:18;;;;;;;;;;;23.80;99.90;;;;;;5022485;28;19908;-82
2021/09/02 08:49:44;;;;;;;;;;;23.80;99.90;;;;;;5022117;28;19914;-81
2021/09/02 08:52:29;;;;;;;;;;;23.80;99.90;;;;;;5031071;28;19944;-83
2021/09/02 08:55:02;;;;;;;;;;;23.90;99.90;;;;;;5020790;28;19932;-82
2021/09/02 08:57:29;;;;;;;;;;;24.00;99.90;;;;;;5010914;28;19925;-81
2021/09/02 09:00:06;;;;;;;;;;;24.00;99.90;;;;;;5023500;28;19917;-81
2021/09/02 09:02:42;;;;;;;;;;;24.10;99.90;;;;;;5016531;28;19906;-84
2021/09/02 09:05:39;;;;;;;;;;;24.10;99.90;;;;;;5011587;28;19945;-84
2021/09/02 09:08:09;;;;;;;;;;;24.00;99.90;;;;;;5042827;28;19909;-85
2021/09/02 09:10:37;;;;;;;;;;;24.10;99.90;;;;;;5031794;28;19912;-83
2021/09/02 09:13:10;;;;;;;;;;;24.00;99.90;;;;;;5025635;28;19913;-84
2021/09/02 09:15:46;;;;;;;;;;;24.00;99.90;;;;;;5021010;28;19917;-84
2021/09/02 09:18:19;;;;;;;;;;;23.90;99.90;;;;;;5015586;28;19921;-82
2021/09/02 09:21:05;;;;;;;;;;;23.80;99.90;;;;;;5014983;28;19928;-83
2021/09/02 09:23:49;;;;;;;;;;;23.90;99.90;;;;;;5013711;28;19890;-81
2021/09/02 09:26:15;;;;;;;;;;;24.10;99.90;;;;;;5002982;28;19914;-81
2021/09/02 09:31:33;;;;;;;;;;;24.20;99.90;;;;;;4996151;28;20012;-84
2021/09/02 09:34:06;;;;;;;;;;;24.30;99.90;;;;;;5010533;28;19910;-83
2021/09/02 09:36:35;;;;;;;;;;;24.20;99.90;;;;;;5024315;28;20393;-82
2021/09/02 09:39:14;;;;;;;;;;;24.20;99.90;;;;;;5017804;28;19917;-83
2021/09/02 09:41:43;;;;;;;;;;;24.20;99.90;;;;;;5026330;28;19932;-83
2021/09/02 09:44:15;;;;;;;;;;;24.30;99.90;;;;;;5024786;28;19920;-82
2021/09/02 09:47:01;;;;;;;;;;;24.30;99.90;;;;;;5017137;28;19921;-84
2021/09/02 09:49:42;;;;;;;;;;;24.10;99.90;;;;;;5022256;28;19909;-83
2021/09/02 09:52:45;;;;;;;;;;;23.70;99.90;;;;;;5029215;28;19910;-83
2021/09/02 09:55:13;;;;;;;;;;;23.60;99.90;;;;;;5003681;28;20036;-81
2021/09/02 09:57:39;;;;;;;;;;;23.70;99.90;;;;;;5004490;28;19952;-80
2021/09/02 10:00:12;;;;;;;;;;;23.70;99.90;;;;;;5019709;28;19920;-81
2021/09/02 10:02:45;;;;;;;;;;;23.60;99.90;;;;;;5021471;28;19893;-84
2021/09/02 10:05:37;;;;;;;;;;;23.50;99.90;;;;;;5019223;28;20424;-82
2021/09/02 10:08:04;;;;;;;;;;;23.50;99.90;;;;;;5013793;28;19913;-83
2021/09/02 10:10:41;;;;;;;;;;;23.70;99.90;;;;;;5012838;28;19909;-83
2021/09/02 10:13:07;;;;;;;;;;;23.70;99.90;;;;;;5016079;28;19928;-81
2021/09/02 10:15:33;;;;;;;;;;;23.80;99.90;;;;;;5018184;28;19909;-80
2021/09/02 10:17:58;;;;;;;;;;;23.80;99.90;;;;;;5023785;28;19909;-81
2021/09/02 10:20:26;;;;;;;;;;;23.80;99.90;;;;;;5022525;28;19905;-83
2021/09/02 10:22:57;;;;;;;;;;;23.80;99.90;;;;;;5022602;28;19909;-81
2021/09/02 10:25:35;;;;;;;;;;;23.70;99.90;;;;;;5028723;28;20422;-81
2021/09/02 10:28:05;;;;;;;;;;;23.60;99.90;;;;;;5014326;28;19916;-84
2021/09/02 10:30:32;;;;;;;;;;;23.70;99.90;;;;;;5017084;28;19989;-82
2021/09/02 10:32:59;;;;;;;;;;;23.70;99.90;;;;;;5022449;28;19921;-83
2021/09/02 10:35:37;;;;;;;;;;;;;;;;;;;;;
2021/09/02 10:38:09;;;;;;;;;;;23.80;99.90;;;;;;5021156;28;19933;-83
2021/09/02 10:40:35;;;;;;;;;;;23.80;99.90;;;;;;5030062;28;19913;-83
2021/09/02 10:43:00;;;;;;;;;;;23.80;99.90;;;;;;5018208;28;19904;-82
2021/09/02 10:45:55;;;;;;;;;;;23.80;99.90;;;;;;5015927;28;19941;-81
2021/09/02 10:48:21;;;;;;;;;;;23.80;99.90;;;;;;5010030;28;19976;-81
2021/09/02 10:50:57;;;;;;;;;;;24.00;99.90;;;;;;5030834;28;19917;-81
2021/09/02 10:53:23;;;;;;;;;;;24.10;99.90;;;;;;5020736;28;19906;-82
2021/09/02 10:56:01;;;;;;;;;;;24.10;99.90;;;;;;5030021;28;19924;-82
2021/09/02 10:58:48;;;;;;;;;;;24.00;99.90;;;;;;5022619;28;20378;-82
2021/09/02 11:01:43;;;;;;;;;;;24.00;99.90;;;;;;5032432;28;19977;-81
2021/09/02 11:04:14;;;;;;;;;;;24.10;99.90;;;;;;5022438;28;19948;-84
2021/09/02 11:07:12;;;;;;;;;;;24.10;99.90;;;;;;5032454;28;19916;-80
2021/09/02 11:09:42;;;;;;;;;;;24.10;99.90;;;;;;5005372;28;19906;-81
2021/09/02 11:12:11;;;;;;;;;;;24.10;99.90;;;;;;5013890;28;19910;-81
2021/09/02 11:14:45;;;;;;;;;;;24.00;99.90;;;;;;5020719;28;19920;-80
2021/09/02 11:17:16;;;;;;;;;;;24.00;99.90;;;;;;5029268;28;19913;-81
2021/09/02 11:19:48;;;;;;;;;;;24.10;99.90;;;;;;5013395;28;20006;-82
2021/09/02 11:22:22;;;;;;;;;;;24.20;99.90;;;;;;5022869;28;19906;-81
2021/09/02 11:24:49;;;;;;;;;;;24.20;99.90;;;;;;5015923;28;19945;-81
2021/09/02 11:27:32;;;;;;;;;;;24.20;99.90;;;;;;5023172;28;19912;-82
2021/09/02 11:30:18;;;;;;;;;;;24.20;99.90;;;;;;5018979;28;19910;-82
2021/09/02 11:32:44;;;;;;;;;;;24.10;99.90;;;;;;5018191;28;19920;-81
2021/09/02 11:35:10;;;;;;;;;;;24.20;99.90;;;;;;5029930;28;19916;-81
2021/09/02 11:37:40;;;;;;;;;;;24.30;99.90;;;;;;5015584;28;19910;-82
2021/09/02 11:40:07;;;;;;;;;;;24.30;99.90;;;;;;5049867;28;20008;-81
2021/09/02 11:42:33;;;;;;;;;;;24.30;99.90;;;;;;5020735;28;19906;-82
2021/09/02 11:44:59;;;;;;;;;;;24.50;99.90;;;;;;5030551;28;19904;-83
2021/09/02 11:47:31;;;;;;;;;;;24.60;99.90;;;;;;5022167;28;19906;-81
2021/09/02 11:49:58;;;;;;;;;;;24.70;99.90;;;;;;5023747;28;19945;-81
2021/09/02 11:52:23;;;;;;;;;;;24.80;99.90;;;;;;5024963;28;20058;-86
2021/09/02 11:54:49;;;;;;;;;;;24.80;99.90;;;;;;5032496;28;19909;-82
2021/09/02 11:57:23;;;;;;;;;;;24.80;99.90;;;;;;5023926;28;19964;-81
2021/09/02 11:59:49;;;;;;;;;;;24.70;99.90;;;;;;5015378;28;20032;-82
2021/09/02 12:02:15;;;;;;;;;;;24.60;99.90;;;;;;5024477;28;19906;-85
2021/09/02 12:04:42;;;;;;;;;;;24.60;99.90;;;;;;5030965;28;20020;-82
2021/09/02 12:07:07;;;;;;;;;;;24.70;99.90;;;;;;5014109;28;19906;-81
2021/09/02 12:09:34;;;;;;;;;;;24.70;99.90;;;;;;5008076;28;19906;-81
2021/09/02 12:12:01;;;;;;;;;;;24.80;99.90;;;;;;5012288;28;19910;-82
2021/09/02 12:14:28;;;;;;;;;;;24.70;99.90;;;;;;5016420;28;19910;-81
2021/09/02 12:17:09;;;;;;;;;;;24.50;99.90;;;;;;5023999;28;19928;-86
2021/09/02 12:19:55;;;;;;;;;;;24.60;99.90;;;;;;5029713;28;19909;-81
2021/09/02 12:22:21;;;;;;;;;;;24.80;99.90;;;;;;5013830;28;19905;-80
2021/09/02 12:24:47;;;;;;;;;;;24.80;99.90;;;;;;5013300;28;19918;-80
2021/09/02 12:27:12;;;;;;;;;;;25.00;99.90;;;;;;5003867;28;20046;-81
2021/09/02 12:29:48;;;;;;;;;;;25.00;99.90;;;;;;5001188;28;19912;-81
2021/09/02 12:32:15;;;;;;;;;;;25.00;99.90;;;;;;5012669;28;19898;-82
2021/09/02 12:34:40;;;;;;;;;;;25.00;99.90;;;;;;5027328;28;19915;-85
2021/09/02 12:37:07;;;;;;;;;;;25.00;99.90;;;;;;5016719;28;19913;-82
2021/09/02 12:39:33;;;;;;;;;;;24.90;99.90;;;;;;5021833;28;19912;-84
2021/09/02 12:42:00;;;;;;;;;;;25.00;99.90;;;;;;5015777;28;19945;-83
2021/09/02 12:44:26;;;;;;;;;;;25.10;99.90;;;;;;5034918;28;19913;-84
2021/09/02 12:47:00;;;;;;;;;;;25.10;99.90;;;;;;5034011;28;19927;-81
2021/09/02 12:49:29;;;;;;;;;;;25.20;99.90;;;;;;5020315;28;19924;-81
2021/09/02 12:51:58;;;;;;;;;;;25.20;99.90;;;;;;5031912;28;19909;-81
2021/09/02 12:54:24;;;;;;;;;;;25.20;99.90;;;;;;5031197;28;19913;-81
2021/09/02 12:56:52;;;;;;;;;;;25.00;99.90;;;;;;5032302;28;20373;-82
2021/09/02 12:59:18;;;;;;;;;;;25.00;99.90;;;;;;5018436;28;19917;-82
2021/09/02 13:01:44;;;;;;;;;;;24.90;99.90;;;;;;5012971;28;19937;-82
2021/09/02 13:04:09;;;;;;;;;;;25.00;99.90;;;;;;5021276;28;19905;-83
2021/09/02 13:06:35;;;;;;;;;;;25.00;99.90;;;;;;5011854;28;19909;-82
2021/09/02 13:09:10;;;;;;;;;;;25.00;99.90;;;;;;5011434;28;19906;-80
2021/09/02 13:11:37;;;;;;;;;;;25.10;99.90;;;;;;5020657;28;19912;-82
2021/09/02 13:14:03;;;;;;;;;;;25.20;99.90;;;;;;5029909;28;19928;-82
2021/09/02 13:16:29;;;;;;;;;;;25.30;99.90;;;;;;5025335;28;19909;-82
2021/09/02 13:18:58;;;;;;;;;;;25.30;99.90;;;;;;5013626;28;19910;-81
2021/09/02 13:21:24;;;;;;;;;;;25.30;99.90;;;;;;5018954;28;19909;-80
2021/09/02 13:23:51;;;;;;;;;;;25.40;99.90;;;;;;5028285;28;19912;-81
2021/09/02 13:26:19;;;;;;;;;;;25.50;99.90;;;;;;5013682;28;19958;-81
2021/09/02 13:28:48;;;;;;;;;;;25.50;99.90;;;;;;5016153;28;19999;-81
2021/09/02 13:31:13;;;;;;;;;;;25.40;99.90;;;;;;5020453;28;19909;-81
2021/09/02 13:33:39;;;;;;;;;;;25.40;99.90;;;;;;5011858;28;19906;-81
2021/09/02 13:36:08;;;;;;;;;;;25.40;99.90;;;;;;5015328;28;19913;-82
2021/09/02 13:38:35;;;;;;;;;;;25.30;99.90;;;;;;5022980;28;19941;-82
2021/09/02 13:41:01;;;;;;;;;;;25.20;99.90;;;;;;5015503;28;20012;-82
2021/09/02 13:43:27;;;;;;;;;;;25.30;99.90;;;;;;5014121;28;19917;-81
2021/09/02 13:45:58;;;;;;;;;;;25.30;99.90;;;;;;5006259;28;19933;-82
2021/09/02 13:48:27;;;;;;;;;;;25.40;99.90;;;;;;5005808;28;19913;-81
2021/09/02 13:50:53;;;;;;;;;;;25.40;99.90;;;;;;5005501;28;19920;-80
2021/09/02 13:53:27;;;;;;;;;;;25.60;99.90;;;;;;5015118;28;19905;-80
2021/09/02 13:55:53;;;;;;;;;;;25.40;99.90;;;;;;5006443;28;19913;-80
2021/09/02 13:58:19;;;;;;;;;;;25.30;99.90;;;;;;5026892;28;19905;-81
2021/09/02 14:00:45;;;;;;;;;;;25.50;99.90;;;;;;5014051;28;19905;-81
2021/09/02 14:03:10;;;;;;;;;;;25.60;99.90;;;;;;5008257;28;19906;-80
2021/09/02 14:05:36;;;;;;;;;;;25.60;99.90;;;;;;5009862;28;19909;-80
2021/09/02 14:08:05;;;;;;;;;;;25.60;99.90;;;;;;5027805;28;20337;-80
2021/09/02 14:10:34;;;;;;;;;;;25.60;99.90;;;;;;5025417;28;19906;-81
2021/09/02 14:13:00;;;;;;;;;;;25.60;99.90;;;;;;5009412;28;20355;-80
2021/09/02 14:15:31;;;;;;;;;;;25.70;99.90;;;;;;4999668;28;19909;-80
2021/09/02 14:17:57;;;;;;;;;;;25.60;99.90;;;;;;5009004;28;19916;-80
2021/09/02 14:20:23;;;;;;;;;;;25.70;99.90;;;;;;5018624;28;20334;-79
2021/09/02 14:22:51;;;;;;;;;;;25.60;99.90;;;;;;5016635;28;19936;-79
2021/09/02 14:25:19;;;;;;;;;;;25.60;99.90;;;;;;5026356;28;19913;-84
2021/09/02 14:27:48;;;;;;;;;;;25.60;99.90;;;;;;5024564;28;19937;-80
2021/09/02 14:30:15;;;;;;;;;;;25.60;99.90;;;;;;5013764;28;19980;-81
2021/09/02 14:32:41;;;;;;;;;;;25.60;99.90;;;;;;5028788;28;19927;-81
2021/09/02 14:35:07;;;;;;;;;;;25.70;99.90;;;;;;5019063;28;19916;-81
2021/09/02 14:37:32;;;;;;;;;;;25.70;99.90;;;;;;5018827;28;19912;-79